createdAt,value
2023-02-01T00:03:51.897Z,3.70
2023-02-01T00:08:55.718Z,4.03
2023-02-01T00:13:59.058Z,3.80
2023-02-01T00:19:05.276Z,3.97
2023-02-01T00:24:08.857Z,4.20
2023-02-01T00:29:15.038Z,6.90
2023-02-01T00:34:19.758Z,4.17
2023-02-01T00:39:22.679Z,5.60
2023-02-01T00:44:25.657Z,4.90
2023-02-01T00:49:30.367Z,5.30
2023-02-01T00:54:33.532Z,4.20
2023-02-01T00:59:36.482Z,3.63
2023-02-01T01:04:40.727Z,4.13
2023-02-01T01:09:43.622Z,3.67
2023-02-01T01:14:47.781Z,3.80
2023-02-01T01:19:52.126Z,3.70
2023-02-01T01:24:55.095Z,3.40
2023-02-01T01:29:58.029Z,3.30
2023-02-01T01:35:02.576Z,4.03
2023-02-01T01:40:06.740Z,3.03
2023-02-01T01:45:22.627Z,3.70
2023-02-01T01:50:31.103Z,2.87
2023-02-01T01:55:37.541Z,3.00
2023-02-01T02:00:41.080Z,3.10
2023-02-01T02:05:46.852Z,4.03
2023-02-01T02:11:02.645Z,3.23
2023-02-01T02:16:24.535Z,3.17
2023-02-01T02:21:49.244Z,2.90
2023-02-01T02:27:26.056Z,2.80
2023-02-01T02:32:49.621Z,2.87
2023-02-01T02:38:04.182Z,3.10
2023-02-01T02:43:31.171Z,3.43
2023-02-01T02:48:40.901Z,3.50
2023-02-01T02:54:10.968Z,3.00
2023-02-01T02:59:35.289Z,3.03
2023-02-01T03:04:38.583Z,3.10
2023-02-01T03:09:46.704Z,3.20
2023-02-01T03:14:54.647Z,3.30
2023-02-01T03:20:01.208Z,2.93
2023-02-01T03:25:11.874Z,3.20
2023-02-01T03:30:22.402Z,2.60
2023-02-01T03:35:31.369Z,2.90
2023-02-01T03:40:38.777Z,2.70
2023-02-01T03:45:46.192Z,2.90
2023-02-01T03:50:54.215Z,3.70
2023-02-01T03:55:59.836Z,3.03
2023-02-01T04:01:02.960Z,2.80
2023-02-01T04:06:09.031Z,2.90
2023-02-01T04:11:14.119Z,3.23
2023-02-01T04:16:17.144Z,2.97
2023-02-01T04:21:20.106Z,3.60
2023-02-01T04:26:24.391Z,2.90
2023-02-01T04:31:28.170Z,2.57
2023-02-01T04:36:31.199Z,3.23
2023-02-01T04:41:35.504Z,3.70
2023-02-01T04:46:38.390Z,3.10
2023-02-01T04:51:42.045Z,3.37
2023-02-01T04:56:46.312Z,3.13
2023-02-01T05:01:49.213Z,2.40
2023-02-01T05:06:52.196Z,2.73
2023-02-01T05:12:13.848Z,3.47
2023-02-01T05:17:16.764Z,3.07
2023-02-01T05:22:20.107Z,3.43
2023-02-01T05:27:24.399Z,6.80
2023-02-01T05:32:27.509Z,4.70
2023-02-01T05:37:30.578Z,3.00
2023-02-01T05:42:34.873Z,3.43
2023-02-01T05:47:37.869Z,3.30
2023-02-01T05:52:40.796Z,3.00
2023-02-01T05:57:45.112Z,2.93
2023-02-01T06:02:48.107Z,3.17
2023-02-01T06:07:51.667Z,3.00
2023-02-01T06:12:55.977Z,3.40
2023-02-01T06:17:58.907Z,3.00
2023-02-01T06:23:01.770Z,2.60
2023-02-01T06:28:07.081Z,3.57
2023-02-01T06:33:09.935Z,3.73
2023-02-01T06:38:13.448Z,3.60
2023-02-01T06:43:17.680Z,3.23
2023-02-01T06:48:20.630Z,3.43
2023-02-01T06:53:23.554Z,3.20
2023-02-01T06:58:30.525Z,3.43
2023-02-01T07:03:33.571Z,3.03
2023-02-01T07:08:38.559Z,3.60
2023-02-01T07:13:42.937Z,4.10
2023-02-01T07:18:46.463Z,3.40
2023-02-01T07:23:49.332Z,3.43
2023-02-01T07:28:53.631Z,3.83
2023-02-01T07:33:58.567Z,3.40
2023-02-01T07:39:01.426Z,3.47
2023-02-01T07:44:06.126Z,3.60
2023-02-01T07:49:09.141Z,3.90
2023-02-01T07:54:12.022Z,3.10
2023-02-01T07:59:16.988Z,3.60
2023-02-01T08:04:20.017Z,3.40
2023-02-01T08:09:22.950Z,3.47
2023-02-01T08:14:27.268Z,3.80
2023-02-01T08:19:30.178Z,3.40
2023-02-01T08:24:33.085Z,3.90
2023-02-01T08:29:37.332Z,4.20
2023-02-01T08:34:40.195Z,3.60
2023-02-01T08:39:46.787Z,3.70
2023-02-01T08:44:52.675Z,3.80
2023-02-01T08:49:55.677Z,3.60
2023-02-01T08:54:58.700Z,2.73
2023-02-01T09:00:03.394Z,4.10
2023-02-01T09:05:06.987Z,3.27
2023-02-01T09:10:10.979Z,3.00
2023-02-01T09:15:15.205Z,3.17
2023-02-01T09:20:19.851Z,3.20
2023-02-01T09:25:23.040Z,3.80
2023-02-01T09:30:29.186Z,3.70
2023-02-01T09:35:33.334Z,3.50
2023-02-01T09:40:37.225Z,3.60
2023-02-01T09:45:49.739Z,3.77
2023-02-01T09:50:57.027Z,3.80
2023-02-01T09:56:07.348Z,3.60
2023-02-01T10:01:19.453Z,3.40
2023-02-01T10:06:38.852Z,3.63
2023-02-01T10:11:55.487Z,3.10
2023-02-01T10:17:09.518Z,3.07
2023-02-01T10:22:22.349Z,2.83
2023-02-01T10:27:35.006Z,3.53
2023-02-01T10:32:43.377Z,3.10
2023-02-01T10:37:47.480Z,2.90
2023-02-01T10:43:00.357Z,3.90
2023-02-01T10:48:05.625Z,3.43
2023-02-01T10:53:14.348Z,3.67
2023-02-01T10:58:19.466Z,3.80
2023-02-01T11:03:41.235Z,3.60
2023-02-01T11:08:47.163Z,4.27
2023-02-01T11:13:55.510Z,4.83
2023-02-01T11:19:00.418Z,3.67
2023-02-01T11:24:05.150Z,4.13
2023-02-01T11:29:18.593Z,3.80
2023-02-01T11:34:27.589Z,3.63
2023-02-01T11:39:32.618Z,3.47
2023-02-01T11:44:38.031Z,3.60
2023-02-01T11:49:42.335Z,3.43
2023-02-01T11:55:01.157Z,3.00
2023-02-01T12:00:18.710Z,3.60
2023-02-01T12:05:29.736Z,3.77
2023-02-01T12:10:46.996Z,3.60
2023-02-01T12:15:59.221Z,3.23
2023-02-01T12:21:11.391Z,3.10
2023-02-01T12:26:37.475Z,3.40
2023-02-01T12:32:07.751Z,3.03
2023-02-01T12:37:24.287Z,2.97
2023-02-01T12:42:31.668Z,2.80
2023-02-01T12:47:40.449Z,3.93
2023-02-01T12:52:48.319Z,4.87
2023-02-01T12:57:54.285Z,4.00
2023-02-01T13:03:03.176Z,3.97
2023-02-01T13:08:10.956Z,3.33
2023-02-01T13:13:19.564Z,3.47
2023-02-01T13:18:27.347Z,4.00
2023-02-01T13:23:33.970Z,3.53
2023-02-01T13:28:45.050Z,3.53
2023-02-01T13:34:06.765Z,3.10
2023-02-01T13:39:45.991Z,4.07
2023-02-01T13:44:52.378Z,3.23
2023-02-01T13:49:58.430Z,3.73
2023-02-01T13:55:26.291Z,3.00
2023-02-01T14:00:33.353Z,2.63
2023-02-01T14:06:05.374Z,2.90
2023-02-01T14:11:42.021Z,2.77
2023-02-01T14:16:45.946Z,2.63
2023-02-01T14:21:50.972Z,2.73
2023-02-01T14:26:56.737Z,2.83
2023-02-01T14:32:07.161Z,2.97
2023-02-01T14:37:12.598Z,3.13
2023-02-01T14:42:26.764Z,2.90
2023-02-01T14:47:35.095Z,3.10
2023-02-01T14:52:43.791Z,4.07
2023-02-01T14:57:51.972Z,3.90
2023-02-01T15:02:57.117Z,4.57
2023-02-01T15:08:06.272Z,7.00
2023-02-01T15:13:21.177Z,3.37
2023-02-01T15:18:24.033Z,3.30
2023-02-01T15:23:27.206Z,3.27
2023-02-01T15:28:31.660Z,3.10
2023-02-01T15:33:34.689Z,3.60
2023-02-01T15:38:42.176Z,3.37
2023-02-01T15:44:04.670Z,3.37
2023-02-01T15:49:21.723Z,3.63
2023-02-01T15:54:29.759Z,3.20
2023-02-01T15:59:43.376Z,3.50
2023-02-01T16:04:51.911Z,3.50
2023-02-01T16:09:57.073Z,3.30
2023-02-01T16:15:01.432Z,4.50
2023-02-01T16:20:04.447Z,4.50
2023-02-01T16:25:08.423Z,4.43
2023-02-01T16:30:13.435Z,5.00
2023-02-01T16:35:25.051Z,3.93
2023-02-01T16:40:28.142Z,4.53
2023-02-01T16:45:32.449Z,4.20
2023-02-01T16:50:35.612Z,4.20
2023-02-01T16:55:38.543Z,4.60
2023-02-01T17:00:42.921Z,4.63
2023-02-01T17:05:48.170Z,4.70
2023-02-01T17:10:51.073Z,2.57
2023-02-01T17:15:59.255Z,1.90
2023-02-01T17:21:03.717Z,2.40
2023-02-01T17:26:06.780Z,1.80
2023-02-01T17:31:14.191Z,1.83
2023-02-01T17:36:19.485Z,1.37
2023-02-01T17:41:22.448Z,1.43
2023-02-01T17:46:27.395Z,1.60
2023-02-01T17:51:31.898Z,1.50
2023-02-01T17:56:34.934Z,1.60
2023-02-01T18:01:40.862Z,1.60
2023-02-01T18:06:43.989Z,1.07
2023-02-01T18:11:49.205Z,1.30
2023-02-01T18:16:53.504Z,1.37
2023-02-01T18:21:57.875Z,1.47
2023-02-01T18:27:01.079Z,1.53
2023-02-01T18:32:05.735Z,1.77
2023-02-01T18:37:08.666Z,2.57
2023-02-01T18:42:11.963Z,1.83
2023-02-01T18:47:16.301Z,1.50
2023-02-01T18:52:19.157Z,1.30
2023-02-01T18:57:23.010Z,2.37
2023-02-01T19:02:27.752Z,1.70
2023-02-01T19:07:30.707Z,1.40
2023-02-01T19:12:35.596Z,1.40
2023-02-01T19:17:41.034Z,3.43
2023-02-01T19:22:44.012Z,1.47
2023-02-01T19:27:47.118Z,3.40
2023-02-01T19:32:52.690Z,1.40
2023-02-01T19:37:56.361Z,1.50
2023-02-01T19:42:59.259Z,1.97
2023-02-01T19:48:05.879Z,1.47
2023-02-01T19:53:08.884Z,1.30
2023-02-01T19:58:11.755Z,1.87
2023-02-01T20:03:15.249Z,1.87
2023-02-01T20:08:18.155Z,1.40
2023-02-01T20:13:21.330Z,1.83
2023-02-01T20:18:25.594Z,1.70
2023-02-01T20:23:28.785Z,1.60
2023-02-01T20:28:33.621Z,1.67
2023-02-01T20:33:38.251Z,1.60
2023-02-01T20:38:41.179Z,2.23
2023-02-01T20:43:44.019Z,1.77
2023-02-01T20:48:50.108Z,2.23
2023-02-01T20:53:54.848Z,1.30
2023-02-01T20:59:03.051Z,1.20
2023-02-01T21:04:07.498Z,1.40
2023-02-01T21:09:10.413Z,1.57
2023-02-01T21:14:13.714Z,2.07
2023-02-01T21:19:19.378Z,1.80
2023-02-01T21:24:22.397Z,1.97
2023-02-01T21:29:25.338Z,2.10
2023-02-01T21:34:29.660Z,2.60
2023-02-01T21:39:32.629Z,2.07
2023-02-01T21:44:35.642Z,2.00
2023-02-01T21:49:39.909Z,2.67
2023-02-01T21:54:43.206Z,3.10
2023-02-01T21:59:46.094Z,2.57
2023-02-01T22:04:50.503Z,2.40
2023-02-01T22:09:53.546Z,2.70
2023-02-01T22:14:56.463Z,2.70
2023-02-01T22:20:00.770Z,2.63
2023-02-01T22:25:04.512Z,3.00
2023-02-01T22:30:08.440Z,2.80
2023-02-01T22:35:12.882Z,3.03
2023-02-01T22:40:15.962Z,3.33
2023-02-01T22:45:18.859Z,3.13
2023-02-01T22:50:23.183Z,3.40
2023-02-01T22:55:26.237Z,2.73
2023-02-01T23:00:29.526Z,3.07
2023-02-01T23:05:33.809Z,2.30
2023-02-01T23:10:37.243Z,2.60
2023-02-01T23:15:40.592Z,1.70
2023-02-01T23:20:44.915Z,2.50
2023-02-01T23:25:51.147Z,2.53
2023-02-01T23:30:54.190Z,2.30
2023-02-01T23:36:00.745Z,2.37
2023-02-01T23:41:05.348Z,2.47
2023-02-01T23:46:08.353Z,2.53
2023-02-01T23:51:12.988Z,2.57
2023-02-01T23:56:21.540Z,2.20
